createdAt,value
2023-02-13T00:00:20.672Z,-2.30
2023-02-13T00:02:24.469Z,-2.30
2023-02-13T00:04:28.002Z,-2.30
2023-02-13T00:06:31.834Z,-2.30
2023-02-13T00:08:35.759Z,-2.40
2023-02-13T00:10:39.149Z,-2.40
2023-02-13T00:12:44.003Z,-2.40
2023-02-13T00:14:47.594Z,-2.40
2023-02-13T00:16:51.106Z,-2.50
2023-02-13T00:18:54.334Z,-2.40
2023-02-13T00:21:02.414Z,-2.40
2023-02-13T00:23:05.607Z,-2.40
2023-02-13T00:25:10.399Z,-2.40
2023-02-13T00:27:14.021Z,-2.40
2023-02-13T00:29:18.794Z,-2.50
2023-02-13T00:31:23.011Z,-2.50
2023-02-13T00:33:26.516Z,-2.60
2023-02-13T00:35:29.784Z,-2.60
2023-02-13T00:37:34.634Z,-2.60
2023-02-13T00:39:38.147Z,-2.60
2023-02-13T00:41:41.862Z,-2.60
2023-02-13T00:43:45.696Z,-2.60
2023-02-13T00:45:50.272Z,-2.40
2023-02-13T00:47:53.760Z,-2.50
2023-02-13T00:49:57.257Z,-2.60
2023-02-13T00:52:00.491Z,-2.60
2023-02-13T00:54:03.832Z,-2.70
2023-02-13T00:56:08.716Z,-2.70
2023-02-13T00:58:12.570Z,-2.70
2023-02-13T01:00:17.286Z,-2.60
2023-02-13T01:02:21.897Z,-2.60
2023-02-13T01:04:25.361Z,-2.60
2023-02-13T01:06:28.992Z,-2.60
2023-02-13T01:08:32.512Z,-2.60
2023-02-13T01:10:36.150Z,-2.70
2023-02-13T01:12:39.473Z,-2.70
2023-02-13T01:14:43.008Z,-2.80
2023-02-13T01:16:46.262Z,-2.80
2023-02-13T01:18:51.166Z,-2.80
2023-02-13T01:21:00.028Z,-2.80
2023-02-13T01:23:03.821Z,-2.70
2023-02-13T01:25:08.530Z,-2.60
2023-02-13T01:27:12.235Z,-2.70
2023-02-13T01:29:16.103Z,-2.70
2023-02-13T01:31:19.361Z,-2.70
2023-02-13T01:33:23.149Z,-2.70
2023-02-13T01:35:27.815Z,-2.70
2023-02-13T01:37:31.263Z,-2.80
2023-02-13T01:39:34.970Z,-2.80
2023-02-13T01:41:38.535Z,-2.80
2023-02-13T01:43:47.884Z,-2.80
2023-02-13T01:45:54.196Z,-2.90
2023-02-13T01:48:01.306Z,-2.80
2023-02-13T01:50:09.553Z,-2.80
2023-02-13T01:52:15.768Z,-2.90
2023-02-13T01:54:23.491Z,-2.90
2023-02-13T01:56:29.933Z,-3.00
2023-02-13T01:58:37.291Z,-3.00
2023-02-13T02:00:41.562Z,-3.00
2023-02-13T02:02:48.472Z,-3.10
2023-02-13T02:04:52.482Z,-3.00
2023-02-13T02:06:59.449Z,-2.90
2023-02-13T02:09:09.161Z,-2.90
2023-02-13T02:11:22.396Z,-2.90
2023-02-13T02:13:28.217Z,-2.80
2023-02-13T02:15:31.920Z,-2.80
2023-02-13T02:17:35.086Z,-2.90
2023-02-13T02:19:48.243Z,-2.90
2023-02-13T02:22:20.336Z,-3.00
2023-02-13T02:24:59.274Z,-2.90
2023-02-13T02:28:00.009Z,-2.80
2023-02-13T02:31:00.568Z,-3.00
2023-02-13T02:35:44.259Z,-3.00
2023-02-13T02:38:02.641Z,-3.00
2023-02-13T02:40:15.745Z,-3.00
2023-02-13T02:42:28.859Z,-2.90
2023-02-13T02:44:36.795Z,-3.00
2023-02-13T02:47:11.479Z,-2.90
2023-02-13T02:49:35.586Z,-2.90
2023-02-13T02:51:48.721Z,-3.00
2023-02-13T02:54:03.204Z,-3.00
2023-02-13T02:56:14.245Z,-3.10
2023-02-13T02:58:40.579Z,-3.00
2023-02-13T03:01:03.198Z,-3.00
2023-02-13T03:03:28.570Z,-2.90
2023-02-13T03:05:52.923Z,-2.90
2023-02-13T03:07:57.575Z,-3.00
2023-02-13T03:10:21.161Z,-2.90
2023-02-13T03:12:45.693Z,-2.70
2023-02-13T03:14:49.688Z,-2.70
2023-02-13T03:17:10.552Z,-2.80
2023-02-13T03:19:50.874Z,-2.80
2023-02-13T03:22:18.330Z,-2.60
2023-02-13T03:24:29.829Z,-2.30
2023-02-13T03:26:50.446Z,-2.30
2023-02-13T03:29:16.650Z,-2.50
2023-02-13T03:31:30.112Z,-2.50
2023-02-13T03:33:50.674Z,-2.50
2023-02-13T03:36:20.627Z,-2.60
2023-02-13T03:38:30.710Z,-2.70
2023-02-13T03:41:00.878Z,-2.70
2023-02-13T03:43:12.202Z,-2.70
2023-02-13T03:45:33.649Z,-2.70
2023-02-13T03:47:37.723Z,-2.70
2023-02-13T03:50:02.042Z,-2.60
2023-02-13T03:52:10.864Z,-2.60
2023-02-13T03:54:22.437Z,-2.50
2023-02-13T03:56:46.765Z,-2.70
2023-02-13T03:59:11.276Z,-2.70
2023-02-13T04:01:18.195Z,-2.70
2023-02-13T04:03:27.721Z,-2.70
2023-02-13T04:05:38.407Z,-2.70
2023-02-13T04:07:42.048Z,-2.80
2023-02-13T04:09:45.678Z,-2.70
2023-02-13T04:11:57.777Z,-2.80
2023-02-13T04:14:08.050Z,-2.80
2023-02-13T04:16:14.723Z,-2.70
2023-02-13T04:18:23.648Z,-2.80
2023-02-13T04:20:29.573Z,-2.80
2023-02-13T04:22:33.170Z,-2.70
2023-02-13T04:24:36.661Z,-2.80
2023-02-13T04:26:42.951Z,-2.80
2023-02-13T04:28:50.763Z,-2.80
2023-02-13T04:30:54.143Z,-2.70
2023-02-13T04:32:57.742Z,-2.60
2023-02-13T04:35:01.446Z,-2.60
2023-02-13T04:37:04.948Z,-2.50
2023-02-13T04:39:08.330Z,-2.50
2023-02-13T04:41:11.804Z,-2.50
2023-02-13T04:43:15.080Z,-2.40
2023-02-13T04:45:20.001Z,-2.50
2023-02-13T04:47:23.517Z,-2.50
2023-02-13T04:49:27.024Z,-2.50
2023-02-13T04:51:30.298Z,-2.30
2023-02-13T04:53:33.777Z,-2.30
2023-02-13T04:55:37.523Z,-2.20
2023-02-13T04:57:41.120Z,-2.20
2023-02-13T04:59:44.469Z,-2.20
2023-02-13T05:01:49.135Z,-2.20
2023-02-13T05:03:52.893Z,-2.20
2023-02-13T05:05:56.199Z,-2.20
2023-02-13T05:07:59.670Z,-2.20
2023-02-13T05:10:02.901Z,-2.20
2023-02-13T05:12:06.556Z,-2.10
2023-02-13T05:14:11.084Z,-2.30
2023-02-13T05:16:15.034Z,-2.40
2023-02-13T05:18:19.901Z,-2.50
2023-02-13T05:20:23.405Z,-2.50
2023-02-13T05:22:43.849Z,-2.60
2023-02-13T05:24:47.681Z,-2.70
2023-02-13T05:26:51.008Z,-2.60
2023-02-13T05:29:11.790Z,-2.70
2023-02-13T05:31:15.208Z,-2.60
2023-02-13T05:33:20.338Z,-2.60
2023-02-13T05:35:24.941Z,-2.70
2023-02-13T05:37:28.534Z,-2.70
2023-02-13T05:39:32.145Z,-2.80
2023-02-13T05:41:35.632Z,-2.80
2023-02-13T05:43:39.140Z,-2.70
2023-02-13T05:45:42.469Z,-2.70
2023-02-13T05:47:46.165Z,-2.70
2023-02-13T05:49:54.413Z,-2.70
2023-02-13T05:51:58.116Z,-2.80
2023-02-13T05:54:01.828Z,-2.80
2023-02-13T05:56:06.447Z,-2.90
2023-02-13T05:58:12.002Z,-2.90
2023-02-13T06:00:16.295Z,-2.90
2023-02-13T06:02:19.599Z,-2.90
2023-02-13T06:04:23.288Z,-2.80
2023-02-13T06:06:28.028Z,-2.80
2023-02-13T06:08:32.117Z,-2.70
2023-02-13T06:10:35.711Z,-2.70
2023-02-13T06:12:39.424Z,-2.70
2023-02-13T06:14:43.426Z,-2.70
2023-02-13T06:16:47.222Z,-2.80
2023-02-13T06:18:50.934Z,-2.70
2023-02-13T06:20:55.675Z,-2.70
2023-02-13T06:23:01.086Z,-2.70
2023-02-13T06:25:04.933Z,-2.50
2023-02-13T06:27:08.258Z,-2.40
2023-02-13T06:29:12.832Z,-2.40
2023-02-13T06:31:16.431Z,-2.40
2023-02-13T06:33:19.990Z,-2.40
2023-02-13T06:35:23.686Z,-2.20
2023-02-13T06:37:26.863Z,-2.10
2023-02-13T06:39:31.857Z,-2.10
2023-02-13T06:41:35.414Z,-1.80
2023-02-13T06:43:40.794Z,-1.80
2023-02-13T06:45:44.598Z,-1.80
2023-02-13T06:47:49.580Z,-1.80
2023-02-13T06:49:52.778Z,-1.50
2023-02-13T06:51:56.154Z,-1.40
2023-02-13T06:53:59.889Z,-1.50
2023-02-13T06:56:07.057Z,-1.40
2023-02-13T06:58:10.335Z,-1.30
2023-02-13T07:00:16.052Z,-1.40
2023-02-13T07:02:19.465Z,-1.30
2023-02-13T07:04:22.863Z,-1.20
2023-02-13T07:06:26.359Z,-1.30
2023-02-13T07:08:30.876Z,-1.20
2023-02-13T07:10:34.266Z,-1.00
2023-02-13T07:12:40.785Z,-0.90
2023-02-13T07:14:44.758Z,-0.80
2023-02-13T07:16:48.267Z,-0.60
2023-02-13T07:18:52.017Z,-0.50
2023-02-13T07:20:55.786Z,-0.40
2023-02-13T07:23:00.360Z,-0.30
2023-02-13T07:25:03.949Z,-0.20
2023-02-13T07:27:07.751Z,-0.30
2023-02-13T07:29:12.662Z,-0.20
2023-02-13T07:31:16.363Z,-0.20
2023-02-13T07:33:20.104Z,-0.30
2023-02-13T07:35:24.576Z,-0.20
2023-02-13T07:37:29.523Z,-0.20
2023-02-13T07:39:33.082Z,0.10
2023-02-13T07:43:40.341Z,1.60
2023-02-13T07:45:45.792Z,3.20
2023-02-13T07:47:49.339Z,4.90
2023-02-13T07:49:52.752Z,5.70
2023-02-13T07:51:58.543Z,6.20
2023-02-13T07:54:03.730Z,6.70
2023-02-13T07:56:08.396Z,6.90
2023-02-13T07:58:12.111Z,7.70
2023-02-13T08:00:17.002Z,7.80
2023-02-13T08:02:22.173Z,8.50
2023-02-13T08:04:26.499Z,7.90
2023-02-13T08:06:30.134Z,6.90
2023-02-13T08:08:34.071Z,6.50
2023-02-13T08:10:54.839Z,6.30
2023-02-13T08:12:58.542Z,6.10
2023-02-13T08:15:01.939Z,5.90
2023-02-13T08:17:05.607Z,5.50
2023-02-13T08:19:10.678Z,7.20
2023-02-13T08:21:15.370Z,8.30
2023-02-13T08:25:22.673Z,11.30
2023-02-13T08:27:26.578Z,10.50
2023-02-13T08:31:33.985Z,11.70
2023-02-13T08:33:37.654Z,10.80
2023-02-13T08:35:42.624Z,9.40
2023-02-13T08:37:47.468Z,8.50
2023-02-13T08:39:50.896Z,8.00
2023-02-13T08:41:54.068Z,7.60
2023-02-13T08:43:57.768Z,7.10
2023-02-13T08:46:01.787Z,7.10
2023-02-13T08:48:05.228Z,6.90
2023-02-13T08:50:09.401Z,6.80
2023-02-13T08:52:14.341Z,7.10
2023-02-13T08:54:18.338Z,9.10
2023-02-13T08:58:25.879Z,12.70
2023-02-13T09:00:29.433Z,13.70
2023-02-13T09:02:32.888Z,14.10
2023-02-13T09:04:36.405Z,14.80
2023-02-13T09:06:39.942Z,15.90
2023-02-13T09:08:45.527Z,16.90
2023-02-13T09:10:48.971Z,17.20
2023-02-13T09:12:54.484Z,17.10
2023-02-13T09:14:57.797Z,17.70
2023-02-13T09:17:01.671Z,15.90
2023-02-13T09:19:05.618Z,15.40
2023-02-13T09:21:12.822Z,14.80
2023-02-13T09:23:16.083Z,14.60
2023-02-13T09:25:21.822Z,16.10
2023-02-13T09:27:25.148Z,16.20
2023-02-13T09:29:31.431Z,17.10
2023-02-13T09:31:35.085Z,17.30
2023-02-13T09:33:38.805Z,18.90
2023-02-13T09:35:42.632Z,16.80
2023-02-13T09:37:46.765Z,17.30
2023-02-13T09:39:50.154Z,17.90
2023-02-13T09:41:55.912Z,19.00
2023-02-13T09:44:02.486Z,19.40
2023-02-13T09:46:13.222Z,19.50
2023-02-13T09:48:26.172Z,19.60
2023-02-13T09:56:54.983Z,17.40
2023-02-13T10:01:15.365Z,18.80
2023-02-13T10:03:29.846Z,19.70
2023-02-13T10:07:58.554Z,21.30
2023-02-13T10:10:07.868Z,19.60
2023-02-13T10:12:27.923Z,20.20
2023-02-13T10:14:38.096Z,20.80
2023-02-13T10:16:46.660Z,20.90
2023-02-13T10:18:54.964Z,21.30
2023-02-13T10:21:02.389Z,19.40
2023-02-13T10:23:22.591Z,20.30
2023-02-13T10:25:29.251Z,20.50
2023-02-13T10:27:38.672Z,20.70
2023-02-13T10:30:05.136Z,21.30
2023-02-13T10:32:13.312Z,22.00
2023-02-13T10:34:18.881Z,21.20
2023-02-13T10:36:26.416Z,19.30
2023-02-13T10:38:32.702Z,19.40
2023-02-13T10:40:41.952Z,19.70
2023-02-13T10:42:47.246Z,20.40
2023-02-13T10:45:04.484Z,20.00
2023-02-13T10:47:18.375Z,19.60
2023-02-13T10:51:46.796Z,20.90
2023-02-13T10:54:05.211Z,21.30
2023-02-13T10:56:26.662Z,21.00
2023-02-13T10:58:39.778Z,20.00
2023-02-13T11:00:49.349Z,21.30
2023-02-13T11:02:53.045Z,21.00
2023-02-13T11:05:00.695Z,20.30
2023-02-13T11:07:06.098Z,18.70
2023-02-13T11:11:38.391Z,17.80
2023-02-13T11:13:43.229Z,17.20
2023-02-13T11:16:03.712Z,17.10
2023-02-13T11:18:18.513Z,16.70
2023-02-13T11:20:36.724Z,16.50
2023-02-13T11:22:42.808Z,15.50
2023-02-13T11:24:55.032Z,15.10
2023-02-13T11:27:04.735Z,15.10
2023-02-13T11:29:19.232Z,14.90
2023-02-13T11:31:33.490Z,15.30
2023-02-13T11:35:41.045Z,14.50
2023-02-13T11:37:44.234Z,14.50
2023-02-13T11:39:51.218Z,14.30
2023-02-13T11:41:54.676Z,13.80
2023-02-13T11:44:02.610Z,13.70
2023-02-13T11:46:09.126Z,13.90
2023-02-13T11:48:23.385Z,13.70
2023-02-13T11:50:29.225Z,13.50
2023-02-13T11:52:35.661Z,13.70
2023-02-13T11:54:42.956Z,14.10
2023-02-13T11:57:04.011Z,14.90
2023-02-13T11:59:15.036Z,15.10
2023-02-13T12:01:29.875Z,15.10
2023-02-13T12:05:39.159Z,15.30
2023-02-13T12:07:43.334Z,15.20
2023-02-13T12:09:49.481Z,14.70
2023-02-13T12:11:54.717Z,13.90
2023-02-13T12:13:59.508Z,14.00
2023-02-13T12:16:06.545Z,13.60
2023-02-13T12:18:17.250Z,14.00
2023-02-13T12:20:22.706Z,13.90
2023-02-13T12:22:45.182Z,14.40
2023-02-13T12:25:19.704Z,13.90
2023-02-13T12:27:30.942Z,13.50
2023-02-13T12:29:57.663Z,13.40
2023-02-13T12:32:12.219Z,13.40
2023-02-13T12:34:55.582Z,13.70
2023-02-13T12:37:20.664Z,13.80
2023-02-13T12:39:32.192Z,13.70
2023-02-13T12:41:45.685Z,14.40
2023-02-13T12:44:28.169Z,14.40
2023-02-13T12:46:39.738Z,14.90
2023-02-13T12:51:00.545Z,15.00
2023-02-13T12:53:30.513Z,15.40
2023-02-13T12:55:51.284Z,15.80
2023-02-13T12:58:06.864Z,16.30
2023-02-13T13:00:25.878Z,17.40
2023-02-13T13:07:07.155Z,18.20
2023-02-13T13:09:29.501Z,18.30
2023-02-13T13:11:56.389Z,17.80
2023-02-13T13:14:07.362Z,17.30
2023-02-13T13:16:18.514Z,17.30
2023-02-13T13:18:34.849Z,17.80
2023-02-13T13:21:00.105Z,17.80
2023-02-13T13:23:09.834Z,18.10
2023-02-13T13:25:23.404Z,17.70
2023-02-13T13:27:30.043Z,17.20
2023-02-13T13:29:41.172Z,17.00
2023-02-13T13:31:49.379Z,18.10
2023-02-13T13:33:53.617Z,17.20
2023-02-13T13:36:05.034Z,16.80
2023-02-13T13:40:33.988Z,18.10
2023-02-13T13:42:42.684Z,17.60
2023-02-13T13:45:02.685Z,16.80
2023-02-13T13:47:16.200Z,16.80
2023-02-13T13:49:30.955Z,16.90
2023-02-13T13:51:34.622Z,16.90
2023-02-13T13:53:58.568Z,16.80
2023-02-13T13:56:09.417Z,16.50
2023-02-13T13:58:23.094Z,16.70
2023-02-13T14:00:29.498Z,17.00
2023-02-13T14:05:04.127Z,17.00
2023-02-13T14:07:23.207Z,15.90
2023-02-13T14:09:47.590Z,16.40
2023-02-13T14:11:52.398Z,15.70
2023-02-13T14:13:55.909Z,15.70
2023-02-13T14:15:59.391Z,15.90
2023-02-13T14:18:07.995Z,16.40
2023-02-13T14:20:39.878Z,16.30
2023-02-13T14:22:43.318Z,16.00
2023-02-13T14:24:51.785Z,15.60
2023-02-13T14:27:05.526Z,15.70
2023-02-13T14:29:34.296Z,14.90
2023-02-13T14:31:40.729Z,14.50
2023-02-13T14:33:44.562Z,14.50
2023-02-13T14:35:59.736Z,14.10
2023-02-13T14:38:08.194Z,14.30
2023-02-13T14:40:34.060Z,14.10
2023-02-13T14:42:40.834Z,13.50
2023-02-13T14:44:50.365Z,13.30
2023-02-13T14:46:55.628Z,12.90
2023-02-13T14:49:03.808Z,12.40
2023-02-13T14:51:09.357Z,12.20
2023-02-13T14:53:21.155Z,11.60
2023-02-13T14:55:35.305Z,11.30
2023-02-13T14:57:44.943Z,10.60
2023-02-13T14:59:51.700Z,10.60
2023-02-13T15:02:01.304Z,10.40
2023-02-13T15:04:12.704Z,10.10
2023-02-13T15:06:24.642Z,9.90
2023-02-13T15:08:33.223Z,9.80
2023-02-13T15:10:44.164Z,8.90
2023-02-13T15:12:59.287Z,8.50
2023-02-13T15:15:05.841Z,8.10
2023-02-13T15:17:20.896Z,7.90
2023-02-13T15:19:26.132Z,7.40
2023-02-13T15:21:33.207Z,7.30
2023-02-13T15:23:36.805Z,7.20
2023-02-13T15:25:42.343Z,7.20
2023-02-13T15:27:46.050Z,6.90
2023-02-13T15:29:59.130Z,6.70
2023-02-13T15:32:03.610Z,6.70
2023-02-13T15:34:22.354Z,6.30
2023-02-13T15:36:27.994Z,5.70
2023-02-13T15:38:33.968Z,5.60
2023-02-13T15:40:43.137Z,5.50
2023-02-13T15:42:46.866Z,5.40
2023-02-13T15:44:54.548Z,5.30
2023-02-13T15:47:05.812Z,4.90
2023-02-13T15:49:14.848Z,4.80
2023-02-13T15:51:21.832Z,4.70
2023-02-13T15:53:25.831Z,4.50
2023-02-13T15:55:32.424Z,4.30
2023-02-13T15:57:35.921Z,4.40
2023-02-13T15:59:41.097Z,4.40
2023-02-13T16:01:45.418Z,4.20
2023-02-13T16:03:59.812Z,4.20
2023-02-13T16:06:03.694Z,4.10
2023-02-13T16:08:28.701Z,4.00
2023-02-13T16:10:34.132Z,3.80
2023-02-13T16:12:37.730Z,3.80
2023-02-13T16:14:49.440Z,3.60
2023-02-13T16:16:56.200Z,3.50
2023-02-13T16:19:01.505Z,3.40
2023-02-13T16:21:06.874Z,3.40
2023-02-13T16:23:18.192Z,3.30
2023-02-13T16:25:26.365Z,3.20
2023-02-13T16:27:30.590Z,3.00
2023-02-13T16:29:34.158Z,2.90
2023-02-13T16:31:37.894Z,2.90
2023-02-13T16:33:42.628Z,2.70
2023-02-13T16:35:49.474Z,2.60
2023-02-13T16:37:56.441Z,2.50
2023-02-13T16:40:38.516Z,2.40
2023-02-13T16:42:42.030Z,2.30
2023-02-13T16:44:45.570Z,2.30
2023-02-13T16:46:52.558Z,2.10
2023-02-13T16:49:18.370Z,2.10
2023-02-13T16:51:32.166Z,2.10
2023-02-13T16:53:36.079Z,2.00
2023-02-13T16:55:39.462Z,1.90
2023-02-13T16:57:44.355Z,1.70
2023-02-13T16:59:56.489Z,1.60
2023-02-13T17:02:22.420Z,1.70
2023-02-13T17:04:26.767Z,1.60
2023-02-13T17:06:31.802Z,1.50
2023-02-13T17:08:35.445Z,1.40
2023-02-13T17:10:42.112Z,1.50
2023-02-13T17:12:46.258Z,1.40
2023-02-13T17:14:49.933Z,1.50
2023-02-13T17:16:53.520Z,1.40
2023-02-13T17:18:57.157Z,1.30
2023-02-13T17:21:01.207Z,1.30
2023-02-13T17:23:08.242Z,1.20
2023-02-13T17:25:18.989Z,1.10
2023-02-13T17:27:22.896Z,1.10
2023-02-13T17:31:46.286Z,1.00
2023-02-13T17:33:28.665Z,0.90
2023-02-13T17:35:32.242Z,0.80
2023-02-13T17:37:35.784Z,0.70
2023-02-13T17:39:40.608Z,0.60
2023-02-13T17:41:43.960Z,0.80
2023-02-13T17:43:47.597Z,0.70
2023-02-13T17:45:51.580Z,0.70
2023-02-13T17:47:55.361Z,0.70
2023-02-13T17:50:08.878Z,0.60
2023-02-13T17:52:18.424Z,0.60
2023-02-13T17:54:22.128Z,0.40
2023-02-13T17:56:27.350Z,0.40
2023-02-13T17:58:30.851Z,0.40
2023-02-13T18:00:35.988Z,0.30
2023-02-13T18:02:39.903Z,0.30
2023-02-13T18:04:43.544Z,0.30
2023-02-13T18:06:47.286Z,0.20
2023-02-13T18:08:50.924Z,0.10
2023-02-13T18:10:54.379Z,0.00
2023-02-13T18:13:04.237Z,0.10
2023-02-13T18:15:08.249Z,0.10
2023-02-13T18:17:11.616Z,0.00
2023-02-13T18:19:15.115Z,0.00
2023-02-13T18:21:18.817Z,-0.10
2023-02-13T18:23:22.311Z,-0.20
2023-02-13T18:25:25.642Z,-0.10
2023-02-13T18:27:29.244Z,-0.20
2023-02-13T18:29:36.275Z,-0.20
2023-02-13T18:31:39.758Z,-0.20
2023-02-13T18:33:43.074Z,-0.20
2023-02-13T18:35:46.892Z,-0.10
2023-02-13T18:37:50.158Z,-0.10
2023-02-13T18:39:53.653Z,-0.10
2023-02-13T18:41:56.941Z,-0.20
2023-02-13T18:44:00.588Z,-0.30
2023-02-13T18:46:05.994Z,-0.30
2023-02-13T18:48:09.642Z,-0.20
2023-02-13T18:50:13.693Z,-0.30
2023-02-13T18:52:17.744Z,-0.40
2023-02-13T18:54:23.129Z,-0.40
2023-02-13T18:56:26.742Z,-0.50
2023-02-13T18:58:30.205Z,-0.50
2023-02-13T19:00:33.664Z,-0.60
2023-02-13T19:02:38.874Z,-0.60
2023-02-13T19:04:42.317Z,-0.50
2023-02-13T19:06:46.664Z,-0.60
2023-02-13T19:08:52.115Z,-0.70
2023-02-13T19:11:00.172Z,-0.80
2023-02-13T19:13:03.592Z,-0.80
2023-02-13T19:15:07.545Z,-0.80
2023-02-13T19:17:11.222Z,-0.80
2023-02-13T19:19:16.067Z,-0.90
2023-02-13T19:21:23.343Z,-0.90
2023-02-13T19:23:26.986Z,-0.90
2023-02-13T19:25:30.812Z,-0.80
2023-02-13T19:27:36.818Z,-0.90
2023-02-13T19:29:40.567Z,-0.80
2023-02-13T19:31:44.325Z,-0.80
2023-02-13T19:33:48.408Z,-0.80
2023-02-13T19:36:00.366Z,-0.70
2023-02-13T19:38:03.733Z,-0.70
2023-02-13T19:40:08.235Z,-0.70
2023-02-13T19:42:11.797Z,-0.70
2023-02-13T19:44:15.961Z,-0.70
2023-02-13T19:46:21.482Z,-0.70
2023-02-13T19:48:25.129Z,-0.90
2023-02-13T19:50:28.621Z,-1.00
2023-02-13T19:52:33.272Z,-1.10
2023-02-13T19:54:36.752Z,-1.00
2023-02-13T19:56:41.689Z,-1.00
2023-02-13T19:58:45.437Z,-1.00
2023-02-13T20:00:49.207Z,-1.00
2023-02-13T20:02:55.088Z,-1.00
2023-02-13T20:04:58.620Z,-1.00
2023-02-13T20:07:02.342Z,-1.00
2023-02-13T20:09:09.876Z,-1.00
2023-02-13T20:11:15.296Z,-0.90
2023-02-13T20:13:18.505Z,-0.90
2023-02-13T20:15:22.796Z,-1.00
2023-02-13T20:17:26.285Z,-1.00
2023-02-13T20:19:30.728Z,-1.10
2023-02-13T20:21:35.329Z,-1.30
2023-02-13T20:23:39.122Z,-1.30
2023-02-13T20:25:43.756Z,-1.30
2023-02-13T20:27:47.093Z,-1.30
2023-02-13T20:29:53.322Z,-1.20
2023-02-13T20:32:02.772Z,-1.40
2023-02-13T20:34:08.233Z,-1.30
2023-02-13T20:36:13.135Z,-1.20
2023-02-13T20:38:16.715Z,-1.20
2023-02-13T20:40:20.770Z,-1.20
2023-02-13T20:42:25.759Z,-1.20
2023-02-13T20:44:29.816Z,-1.20
2023-02-13T20:46:33.983Z,-1.20
2023-02-13T20:48:37.763Z,-1.10
2023-02-13T20:50:41.369Z,-1.10
2023-02-13T20:52:44.856Z,-1.20
2023-02-13T20:54:48.636Z,-1.20
2023-02-13T20:56:52.500Z,-1.20
2023-02-13T20:59:02.535Z,-1.30
2023-02-13T21:01:11.526Z,-1.40
2023-02-13T21:03:15.081Z,-1.30
2023-02-13T21:05:18.517Z,-1.40
2023-02-13T21:07:22.235Z,-1.40
2023-02-13T21:09:25.832Z,-1.40
2023-02-13T21:11:30.241Z,-1.50
2023-02-13T21:13:34.346Z,-1.60
2023-02-13T21:15:39.476Z,-1.60
2023-02-13T21:17:42.975Z,-1.60
2023-02-13T21:19:46.535Z,-1.60
2023-02-13T21:21:50.026Z,-1.60
2023-02-13T21:23:54.942Z,-1.70
2023-02-13T21:26:02.002Z,-1.70
2023-02-13T21:28:05.436Z,-1.70
2023-02-13T21:30:09.881Z,-1.60
2023-02-13T21:32:14.673Z,-1.70
2023-02-13T21:34:19.266Z,-1.70
2023-02-13T21:36:22.756Z,-1.80
2023-02-13T21:38:26.009Z,-1.70
2023-02-13T21:40:29.652Z,-1.80
2023-02-13T21:42:33.107Z,-1.70
2023-02-13T21:44:36.394Z,-1.60
2023-02-13T21:46:39.581Z,-1.60
2023-02-13T21:48:45.132Z,-1.60
2023-02-13T21:50:49.105Z,-1.60
2023-02-13T21:52:52.574Z,-1.60
2023-02-13T21:54:55.989Z,-1.70
2023-02-13T21:56:59.562Z,-1.80
2023-02-13T21:59:04.246Z,-1.70
2023-02-13T22:01:20.561Z,-1.70
2023-02-13T22:03:27.282Z,-1.70
2023-02-13T22:05:32.344Z,-1.70
2023-02-13T22:07:56.160Z,-1.80
2023-02-13T22:09:59.610Z,-1.80
2023-02-13T22:12:04.142Z,-1.70
2023-02-13T22:14:10.270Z,-1.80
2023-02-13T22:16:15.826Z,-1.80
2023-02-13T22:18:19.386Z,-1.80
2023-02-13T22:20:23.639Z,-1.80
2023-02-13T22:22:28.711Z,-1.90
2023-02-13T22:24:32.815Z,-1.90
2023-02-13T22:26:38.366Z,-2.00
2023-02-13T22:28:41.926Z,-2.00
2023-02-13T22:30:45.782Z,-2.00
2023-02-13T22:32:49.417Z,-2.00
2023-02-13T22:34:53.631Z,-2.10
2023-02-13T22:36:57.112Z,-2.10
2023-02-13T22:39:01.814Z,-2.20
2023-02-13T22:41:08.903Z,-2.10
2023-02-13T22:43:12.375Z,-2.10
2023-02-13T22:45:15.859Z,-2.10
2023-02-13T22:47:19.055Z,-2.10
2023-02-13T22:49:22.436Z,-2.00
2023-02-13T22:51:29.162Z,-2.00
2023-02-13T22:53:32.975Z,-2.00
2023-02-13T22:55:37.709Z,-2.10
2023-02-13T22:57:41.132Z,-2.20
2023-02-13T22:59:44.762Z,-2.10
2023-02-13T23:01:47.975Z,-2.20
2023-02-13T23:03:51.529Z,-2.30
2023-02-13T23:05:54.841Z,-2.20
2023-02-13T23:07:58.029Z,-2.10
2023-02-13T23:10:01.519Z,-2.10
2023-02-13T23:12:24.789Z,-2.10
2023-02-13T23:14:28.234Z,-2.10
2023-02-13T23:16:53.072Z,-2.20
2023-02-13T23:18:56.850Z,-2.30
2023-02-13T23:21:06.605Z,-2.40
2023-02-13T23:23:10.927Z,-2.30
2023-02-13T23:25:14.834Z,-2.20
2023-02-13T23:27:19.981Z,-2.20
2023-02-13T23:29:23.533Z,-2.10
2023-02-13T23:31:26.966Z,-2.20
2023-02-13T23:33:31.161Z,-2.30
2023-02-13T23:35:34.635Z,-2.10
2023-02-13T23:37:38.563Z,-2.00
2023-02-13T23:39:42.052Z,-2.10
2023-02-13T23:41:45.609Z,-2.20
2023-02-13T23:43:50.530Z,-2.10
2023-02-13T23:45:54.021Z,-2.30
2023-02-13T23:47:57.360Z,-2.20
2023-02-13T23:50:00.869Z,-2.30
2023-02-13T23:52:04.057Z,-2.30
2023-02-13T23:54:07.322Z,-2.30
2023-02-13T23:56:10.712Z,-2.40
2023-02-13T23:58:13.992Z,-2.30
